Time;durP1;ratioP1;P1;durP2;ratioP2;P2;SDS_P1;SDS_P2;PMS_P1;PMS_P2;Temp;Humidity;BMP_temperature;BMP_pressure;BME280_temperature;BME280_humidity;BME280_pressure;Samples;Min_cycle;Max_cycle;Signal;HPM_P1;HPM_P2
2021/08/21 00:02:21;;;;;;;5.80;3.33;;;;;;;18.96;44.60;101465.38;2651168;36;20034;-72
2021/08/21 00:04:51;;;;;;;;;;;;;;;18.66;45.32;101466.88;2614595;47;20593;-72
2021/08/21 00:07:21;;;;;;;5.50;2.75;;;;;;;18.87;44.90;101456.19;2650544;36;19939;-72
2021/08/21 00:09:51;;;;;;;5.85;3.03;;;;;;;18.89;44.43;101461.56;2614723;54;20026;-72
2021/08/21 00:12:21;;;;;;;4.57;3.28;;;;;;;18.86;44.71;101460.00;2651474;36;20023;-72
2021/08/21 00:14:52;;;;;;;5.43;3.13;;;;;;;18.83;44.61;101449.28;2613818;54;20062;-71
2021/08/21 00:17:25;;;;;;;4.75;2.95;;;;;;;18.82;44.38;101453.09;2650889;36;20036;-72
2021/08/21 00:19:54;;;;;;;;;;;;;;;18.50;45.44;101450.22;2615104;54;20069;-72
2021/08/21 00:22:25;;;;;;;4.28;2.47;;;;;;;18.70;44.71;101451.63;2650814;36;19950;-72
2021/08/21 00:24:55;;;;;;;4.80;2.88;;;;;;;18.70;44.41;101446.09;2615124;39;20426;-72
2021/08/21 00:27:27;;;;;;;4.72;2.70;;;;;;;18.69;44.40;101452.69;2651110;36;20430;-72
2021/08/21 00:29:57;;;;;;;4.77;3.00;;;;;;;18.64;44.55;101450.44;2614750;54;20030;-72
2021/08/21 00:32:30;;;;;;;4.05;2.58;;;;;;;18.64;44.82;101455.97;2652727;36;20113;-72
2021/08/21 00:35:00;;;;;;;4.55;2.78;;;;;;;18.59;45.03;101449.22;2618588;54;20155;-71
2021/08/21 00:37:30;;;;;;;4.13;2.67;;;;;;;18.57;44.35;101454.06;2652790;36;20525;-72
2021/08/21 00:40:00;;;;;;;4.35;2.83;;;;;;;18.56;44.46;101457.84;2614343;54;20557;-72
2021/08/21 00:42:30;;;;;;;5.22;2.67;;;;;;;18.55;44.75;101453.34;2651427;36;20042;-72
2021/08/21 00:45:00;;;;;;;4.07;2.78;;;;;;;18.53;44.63;101459.06;2614760;54;20026;-72
2021/08/21 00:47:33;;;;;;;4.88;2.65;;;;;;;18.55;44.97;101454.22;2650460;36;20057;-73
2021/08/21 00:50:02;;;;;;;;;;;;;;;18.27;45.98;101452.78;2613460;54;20063;-72
2021/08/21 00:52:35;;;;;;;4.97;2.72;;;;;;;18.51;44.75;101446.44;2651499;36;19954;-72
2021/08/21 00:55:05;;;;;;;;;;;;;;;18.25;45.36;101452.06;2614706;54;20034;-72
2021/08/21 00:57:35;;;;;;;3.25;2.22;;;;;;;18.47;44.96;101453.34;2650591;36;19954;-72
2021/08/21 01:00:07;;;;;;;5.82;3.05;;;;;;;18.49;44.72;101445.72;2614704;54;20027;-71
2021/08/21 01:02:42;;;;;;;4.97;2.80;;;;;;;18.47;45.09;101445.03;2650981;36;20042;-72
2021/08/21 01:05:16;;;;;;;4.57;3.05;;;;;;;18.42;44.85;101446.41;2613707;54;20095;-72
2021/08/21 01:07:47;;;;;;;4.18;2.60;;;;;;;18.39;45.02;101448.63;2650975;36;20799;-72
2021/08/21 01:10:21;;;;;;;4.90;3.03;;;;;;;18.38;45.15;101446.91;2614724;47;20043;-72
2021/08/21 01:12:56;;;;;;;4.13;2.55;;;;;;;18.37;44.72;101443.25;2651026;36;20422;-71
2021/08/21 01:15:27;;;;;;;4.78;3.10;;;;;;;18.36;44.90;101444.31;2614823;54;20045;-72
2021/08/21 01:18:10;;;;;;;4.22;2.72;;;;;;;18.36;44.73;101452.59;2651126;36;20448;-71
2021/08/21 01:20:41;;;;;;;6.30;3.20;;;;;;;18.33;44.85;101446.56;2615179;47;20563;-72
2021/08/21 01:23:13;;;;;;;;;;;;;;;18.05;45.62;101451.47;2650669;36;20089;-71
2021/08/21 01:25:54;;;;;;;4.88;2.50;;;;;;;18.27;45.39;101450.00;2614645;47;20013;-72
2021/08/21 01:28:28;;;;;;;5.38;2.85;;;;;;;18.29;45.08;101451.56;2651932;36;20641;-72
2021/08/21 01:31:28;;;;;;;5.85;3.10;;;;;;;18.27;45.44;101455.56;2616045;54;20059;-72
2021/08/21 01:33:59;;;;;;;4.85;2.80;;;;;;;18.27;44.96;101453.66;2651752;36;20199;-72
2021/08/21 01:36:29;;;;;;;4.40;2.85;;;;;;;18.28;45.06;101458.13;2614693;47;20965;-72
2021/08/21 01:39:20;;;;;;;4.78;2.88;;;;;;;18.26;45.15;101459.34;2650489;36;20067;-72
2021/08/21 01:41:57;;;;;;;5.90;2.80;;;;;;;18.25;45.09;101458.47;2614361;39;20128;-72
2021/08/21 01:44:30;;;;;;;6.40;2.65;;;;;;;18.26;45.00;101456.59;2637904;36;20038;-72
2021/08/21 01:47:00;;;;;;;3.58;2.40;;;;;;;18.23;45.02;101455.00;2614091;54;20689;-72
2021/08/21 01:49:30;;;;;;;4.32;2.53;;;;;;;18.22;45.10;101447.72;2633076;36;20030;-72
2021/08/21 01:52:04;;;;;;;4.35;2.67;;;;;;;18.21;45.08;101445.13;2640439;36;20038;-73
2021/08/21 01:54:35;;;;;;;3.70;2.80;;;;;;;18.20;45.02;101446.16;2615157;54;20037;-72
2021/08/21 01:57:07;;;;;;;5.63;2.80;;;;;;;18.20;45.22;101440.63;2650423;36;20035;-72
2021/08/21 02:00:16;;;;;;;4.40;2.50;;;;;;;18.17;45.36;101441.84;2612021;47;20038;-72
2021/08/21 02:02:56;;;;;;;4.40;2.83;;;;;;;18.15;45.43;101441.13;2651402;36;20038;-72
2021/08/21 02:05:38;;;;;;;5.25;2.95;;;;;;;18.14;45.15;101439.41;2614608;47;20141;-72
2021/08/21 02:08:09;;;;;;;4.90;3.25;;;;;;;18.14;45.07;101439.41;2651140;36;20030;-71
2021/08/21 02:10:42;;;;;;;4.43;3.22;;;;;;;18.12;45.59;101432.28;2613496;46;20039;-72
2021/08/21 02:13:14;;;;;;;4.63;3.17;;;;;;;18.09;45.34;101440.94;2651205;36;20031;-72
2021/08/21 02:15:46;;;;;;;5.35;2.78;;;;;;;18.10;45.20;101440.78;2614059;47;20038;-72
2021/08/21 02:18:16;;;;;;;4.82;2.80;;;;;;;18.04;45.29;101433.13;2651473;36;20035;-71
2021/08/21 02:21:13;;;;;;;5.13;3.22;;;;;;;18.03;45.11;101436.91;2614192;47;20042;-71
2021/08/21 02:23:43;;;;;;;4.97;2.97;;;;;;;18.03;45.14;101434.16;2651375;36;20042;-71
2021/08/21 02:26:14;;;;;;;4.88;2.97;;;;;;;17.99;45.11;101429.97;2614424;39;20817;-72
2021/08/21 02:28:52;;;;;;;4.57;3.17;;;;;;;17.98;45.21;101436.53;2650979;36;20573;-72
2021/08/21 02:31:25;;;;;;;6.05;3.58;;;;;;;17.98;45.08;101436.53;2614491;47;20049;-72
2021/08/21 02:33:55;;;;;;;4.65;3.00;;;;;;;17.95;45.25;101429.41;2651217;36;20583;-71
2021/08/21 02:36:27;;;;;;;4.65;2.65;;;;;;;17.94;45.50;101432.38;2614272;54;20038;-71
2021/08/21 02:38:57;;;;;;;4.43;3.08;;;;;;;17.91;45.13;101438.25;2651134;36;20054;-71
2021/08/21 02:41:28;;;;;;;4.85;2.85;;;;;;;17.89;45.29;101435.63;2614028;47;20141;-72
2021/08/21 02:43:58;;;;;;;4.35;3.05;;;;;;;17.87;45.11;101428.53;2651105;36;20038;-71
2021/08/21 02:46:31;;;;;;;4.65;3.35;;;;;;;17.87;45.45;101429.38;2614778;54;20058;-72
2021/08/21 02:49:01;;;;;;;4.18;2.78;;;;;;;17.85;44.84;101425.94;2650451;36;20417;-72
2021/08/21 02:51:31;;;;;;;4.38;2.90;;;;;;;17.84;45.71;101426.09;2614463;54;20135;-72
2021/08/21 02:54:01;;;;;;;3.63;2.60;;;;;;;17.83;45.29;101429.91;2650808;36;20537;-72
2021/08/21 02:56:33;;;;;;;4.28;2.60;;;;;;;17.82;45.35;101420.72;2614081;47;20030;-71
2021/08/21 02:59:03;;;;;;;4.88;3.03;;;;;;;17.83;45.37;101425.22;2650119;36;20069;-71
2021/08/21 03:01:36;;;;;;;4.22;3.00;;;;;;;17.84;44.96;101418.66;2613943;46;20134;-72
2021/08/21 03:04:07;;;;;;;4.88;2.70;;;;;;;17.82;45.43;101417.97;2651693;36;20407;-72
2021/08/21 03:06:37;;;;;;;5.32;2.50;;;;;;;17.83;45.32;101429.91;2614558;54;20593;-72
2021/08/21 03:09:10;;;;;;;3.53;2.38;;;;;;;17.81;45.75;101423.66;2650860;36;20129;-72
2021/08/21 03:11:40;;;;;;;5.45;3.10;;;;;;;17.79;44.87;101415.50;2614102;47;20034;-72
2021/08/21 03:14:46;;;;;;;4.18;2.63;;;;;;;17.77;45.73;101422.28;2541215;54;2004324;-71
2021/08/21 03:17:18;;;;;;;5.85;2.58;;;;;;;17.80;45.40;101419.16;2650427;36;20414;-71
2021/08/21 03:19:49;;;;;;;3.75;2.92;;;;;;;17.76;45.23;101426.94;2614548;39;20434;-71
2021/08/21 03:22:19;;;;;;;3.80;2.58;;;;;;;17.76;45.21;101426.94;2651109;36;20500;-71
2021/08/21 03:24:50;;;;;;;4.55;2.78;;;;;;;17.75;45.32;101427.09;2614340;51;20041;-71
2021/08/21 03:27:19;;;;;;;4.60;2.83;;;;;;;17.75;45.23;101427.97;2651141;36;20430;-72
2021/08/21 03:29:51;;;;;;;6.13;3.00;;;;;;;17.75;45.30;101422.44;2614334;47;20059;-72
2021/08/21 03:32:24;;;;;;;6.15;2.97;;;;;;;17.76;45.07;101432.47;2651535;36;20111;-72
2021/08/21 03:34:56;;;;;;;5.60;3.13;;;;;;;17.74;45.55;101428.13;2613006;47;20079;-72
2021/08/21 03:37:29;;;;;;;5.60;3.25;;;;;;;17.72;45.31;101427.41;2651013;36;20415;-71
2021/08/21 03:39:59;;;;;;;5.05;3.03;;;;;;;17.72;45.39;101425.50;2613986;47;20068;-72
2021/08/21 03:42:29;;;;;;;5.30;3.08;;;;;;;17.70;44.98;101424.84;2650835;36;20034;-70
2021/08/21 03:45:08;;;;;;;6.40;2.90;;;;;;;17.69;45.36;101429.50;2614312;47;20039;-72
2021/08/21 03:47:42;;;;;;;4.50;2.78;;;;;;;17.68;45.55;101425.00;2650508;36;20533;-72
2021/08/21 03:50:14;;;;;;;5.80;2.85;;;;;;;17.65;45.15;101429.97;2614199;47;20062;-72
2021/08/21 03:52:44;;;;;;;5.53;3.20;;;;;;;17.63;45.56;101421.84;2650899;36;20045;-72
2021/08/21 03:55:14;;;;;;;4.85;2.97;;;;;;;17.62;45.16;101420.09;2612526;47;20103;-71
2021/08/21 03:57:45;;;;;;;11.70;3.28;;;;;;;17.60;45.49;101430.50;2650294;36;20038;-71
2021/08/21 04:00:17;;;;;;;5.18;3.08;;;;;;;17.59;45.30;101431.53;2614317;47;20034;-72
2021/08/21 04:02:55;;;;;;;5.43;2.90;;;;;;;17.59;45.91;101427.88;2650977;36;20038;-71
2021/08/21 04:05:30;;;;;;;4.82;2.92;;;;;;;17.56;45.64;101425.44;2613949;39;20808;-71
2021/08/21 04:08:01;;;;;;;4.63;2.95;;;;;;;17.54;45.53;101433.03;2650293;36;20045;-71
2021/08/21 04:10:31;;;;;;;4.75;2.78;;;;;;;17.54;45.82;101433.03;2614229;47;20038;-71
2021/08/21 04:13:03;;;;;;;5.60;3.30;;;;;;;17.51;45.53;101436.13;2650184;36;20644;-71
2021/08/21 04:15:34;;;;;;;5.57;3.50;;;;;;;17.50;45.66;101426.97;2613786;39;20758;-72
2021/08/21 04:18:06;;;;;;;5.22;3.30;;;;;;;17.52;45.97;101429.56;2650543;36;20149;-71
2021/08/21 04:20:37;;;;;;;5.63;3.50;;;;;;;17.47;46.32;101430.03;2612754;47;20034;-71
2021/08/21 04:23:07;;;;;;;4.88;3.22;;;;;;;17.46;46.17;101428.31;2650858;36;20723;-72
2021/08/21 04:25:41;;;;;;;4.28;2.90;;;;;;;17.45;45.90;101422.97;2613256;51;21077;-71
2021/08/21 04:28:12;;;;;;;4.53;2.88;;;;;;;17.45;46.24;101425.72;2650970;36;20038;-71
2021/08/21 04:30:43;;;;;;;4.90;3.22;;;;;;;17.44;46.15;101424.88;2613522;47;20038;-71
2021/08/21 04:33:16;;;;;;;3.97;2.80;;;;;;;17.45;46.17;101423.84;2650980;36;20473;-71
2021/08/21 04:35:47;;;;;;;4.82;3.00;;;;;;;17.42;46.20;101424.16;2612104;47;20035;-71
2021/08/21 04:38:17;;;;;;;5.07;2.83;;;;;;;17.44;46.33;101424.00;2650173;36;20038;-71
2021/08/21 04:40:58;;;;;;;6.63;3.60;;;;;;;17.44;46.30;101426.75;2614107;47;20034;-71
2021/08/21 04:43:28;;;;;;;4.88;3.42;;;;;;;17.44;46.71;101424.88;2650536;36;20042;-71
2021/08/21 04:45:58;;;;;;;5.72;3.38;;;;;;;17.45;46.34;101423.84;2613940;54;20063;-71
2021/08/21 04:48:30;;;;;;;4.88;2.90;;;;;;;17.49;46.37;101427.13;2649993;36;20038;-71
2021/08/21 04:51:00;;;;;;;;;;;;;;;17.20;46.99;101422.78;2613182;47;20042;-71
2021/08/21 04:53:32;;;;;;;5.32;3.15;;;;;;;17.45;46.45;101429.38;2651187;36;19950;-71
2021/08/21 04:56:02;;;;;;;4.45;3.25;;;;;;;17.50;46.22;101434.41;2615259;51;20055;-71
2021/08/21 04:58:39;;;;;;;4.43;3.00;;;;;;;17.50;46.58;101426.97;2650516;36;20050;-71
2021/08/21 05:01:10;;;;;;;5.05;3.47;;;;;;;17.51;46.64;101428.72;2613643;47;20038;-71
2021/08/21 05:03:49;;;;;;;4.40;3.10;;;;;;;17.55;46.53;101434.75;2650470;36;20034;-71
2021/08/21 05:06:19;;;;;;;5.68;3.55;;;;;;;17.51;46.41;101431.47;2614119;31;20494;-71
2021/08/21 05:08:49;;;;;;;5.30;3.53;;;;;;;17.52;46.33;101433.22;2649116;36;20138;-71
2021/08/21 05:11:19;;;;;;;5.55;3.83;;;;;;;17.54;46.59;101430.25;2614208;47;20038;-71
2021/08/21 05:13:49;;;;;;;4.55;3.25;;;;;;;17.54;46.84;101430.25;2649964;36;20060;-71
2021/08/21 05:16:20;;;;;;;4.75;3.15;;;;;;;17.53;46.54;101434.09;2613240;47;20031;-71
2021/08/21 05:19:24;;;;;;;6.43;3.50;;;;;;;17.54;46.49;101433.88;2649870;36;20046;-71
2021/08/21 05:21:57;;;;;;;5.03;3.40;;;;;;;17.52;46.81;101433.22;2614321;47;20069;-71
2021/08/21 05:24:27;;;;;;;5.00;3.55;;;;;;;17.51;46.38;101431.47;2641010;36;20038;-71
2021/08/21 05:26:57;;;;;;;5.32;3.28;;;;;;;17.51;46.72;101428.72;2614549;31;20517;-71
2021/08/21 05:29:27;;;;;;;5.55;3.95;;;;;;;17.54;46.96;101430.25;2638708;36;20581;-71
2021/08/21 05:31:57;;;;;;;5.47;3.58;;;;;;;17.55;46.86;101426.47;2614920;54;20059;-71
2021/08/21 05:34:30;;;;;;;5.45;3.53;;;;;;;17.57;46.98;101428.03;2638359;36;20042;-71
2021/08/21 05:37:00;;;;;;;5.63;3.40;;;;;;;17.56;46.90;101436.50;2614080;54;20542;-71
2021/08/21 05:39:31;;;;;;;5.53;3.67;;;;;;;17.57;46.75;101441.88;2632237;36;20451;-71
2021/08/21 05:42:02;;;;;;;4.53;3.23;;;;;;;17.56;47.02;101433.72;2624358;36;20049;-71
2021/08/21 05:44:31;;;;;;;6.30;4.00;;;;;;;17.59;47.06;101430.66;2631895;36;20054;-71
2021/08/21 05:47:02;;;;;;;5.88;3.60;;;;;;;17.61;47.04;101435.00;2623587;36;20157;-72
2021/08/21 05:49:35;;;;;;;5.55;3.67;;;;;;;17.64;47.18;101434.66;2631899;36;20071;-71
2021/08/21 05:52:06;;;;;;;5.25;3.80;;;;;;;17.63;47.07;101432.91;2650559;36;20045;-71
2021/08/21 05:54:36;;;;;;;5.32;3.28;;;;;;;17.63;47.10;101435.69;2613715;54;20038;-71
2021/08/21 05:57:15;;;;;;;5.60;3.38;;;;;;;17.65;46.95;101432.75;2650275;36;20146;-70
2021/08/21 05:59:45;;;;;;;4.75;3.42;;;;;;;17.67;47.19;101442.63;2613188;54;20069;-70
2021/08/21 06:02:15;;;;;;;5.78;3.90;;;;;;;17.69;47.17;101446.09;2650924;36;20159;-70
2021/08/21 06:04:48;;;;;;;5.40;3.63;;;;;;;17.74;47.40;101437.28;2613503;47;20034;-70
2021/08/21 06:07:18;;;;;;;;;;;;;;;17.47;48.23;101445.78;2651225;36;20035;-71
2021/08/21 06:09:48;;;;;;;5.40;3.20;;;;;;;17.71;47.36;101434.84;2614451;47;19946;-70
2021/08/21 06:12:18;;;;;;;5.30;4.03;;;;;;;17.76;47.34;101438.00;2651434;36;20569;-71
2021/08/21 06:14:48;;;;;;;5.45;3.72;;;;;;;17.79;47.69;101445.09;2613762;54;20045;-71
2021/08/21 06:17:18;;;;;;;5.90;3.65;;;;;;;17.81;47.28;101445.78;2651166;36;20425;-71
2021/08/21 06:19:51;;;;;;;6.30;4.30;;;;;;;17.84;47.57;101449.13;2614405;54;20034;-71
2021/08/21 06:22:21;;;;;;;5.97;3.75;;;;;;;17.85;47.96;101449.97;2651870;36;20016;-72
2021/08/21 06:24:51;;;;;;;6.72;3.83;;;;;;;17.87;47.79;101448.75;2614445;54;20073;-71
2021/08/21 06:27:22;;;;;;;5.60;3.97;;;;;;;17.88;47.31;101449.63;2651358;36;20122;-71
2021/08/21 06:29:52;;;;;;;5.80;3.97;;;;;;;17.91;48.19;101457.63;2613532;54;20042;-71
2021/08/21 06:32:22;;;;;;;6.82;4.05;;;;;;;17.93;48.15;101459.19;2651422;36;20012;-71
2021/08/21 06:34:54;;;;;;;5.03;3.50;;;;;;;17.98;48.06;101462.31;2614913;54;20046;-71
2021/08/21 06:37:24;;;;;;;4.95;3.65;;;;;;;17.96;47.43;101455.19;2651111;36;20546;-71
2021/08/21 06:39:54;;;;;;;6.43;4.07;;;;;;;18.00;47.64;101453.84;2614537;54;20022;-71
2021/08/21 06:42:24;;;;;;;5.43;3.92;;;;;;;18.03;47.61;101453.53;2651778;36;20012;-71
2021/08/21 06:45:18;;;;;;;6.53;3.72;;;;;;;18.05;47.72;101459.78;2614286;39;20423;-71
2021/08/21 06:47:47;;;;;;;5.43;4.00;;;;;;;18.08;47.44;101453.91;2650304;36;20034;-71
2021/08/21 06:50:21;;;;;;;6.40;3.95;;;;;;;18.12;47.71;101449.75;2612745;54;20034;-71
2021/08/21 06:52:51;;;;;;;6.15;4.00;;;;;;;18.11;47.80;101453.59;2651134;36;20034;-71
2021/08/21 06:55:21;;;;;;;6.50;4.53;;;;;;;18.16;47.71;101448.41;2614332;54;20104;-71
2021/08/21 06:58:07;;;;;;;5.35;3.85;;;;;;;18.20;48.14;101443.38;2650941;36;20034;-71
2021/08/21 07:00:37;;;;;;;6.45;3.90;;;;;;;18.26;48.15;101449.13;2614465;54;20038;-70
2021/08/21 07:03:08;;;;;;;6.25;3.95;;;;;;;18.33;48.75;101446.56;2661403;36;20042;-70
2021/08/21 07:05:41;;;;;;;6.38;3.78;;;;;;;18.42;48.90;101440.88;2613476;54;20053;-71
2021/08/21 07:08:11;;;;;;;6.22;3.47;;;;;;;18.49;48.83;101448.50;2651145;36;20061;-70
2021/08/21 07:10:42;;;;;;;5.55;3.40;;;;;;;18.57;48.78;101441.06;2615084;54;20061;-72
2021/08/21 07:13:11;;;;;;;4.95;3.22;;;;;;;18.67;48.82;101444.56;2651601;36;20681;-71
2021/08/21 07:15:41;;;;;;;5.38;3.63;;;;;;;18.76;48.62;101446.28;2614016;54;20054;-71
2021/08/21 07:18:12;;;;;;;7.00;3.63;;;;;;;18.87;48.93;101447.88;2652253;36;20042;-70
2021/08/21 07:20:44;;;;;;;6.95;3.80;;;;;;;19.00;48.56;101442.69;2614638;54;20038;-70
2021/08/21 07:23:14;;;;;;;4.80;3.25;;;;;;;19.07;48.29;101438.19;2653166;36;20038;-70
2021/08/21 07:25:45;;;;;;;4.72;3.33;;;;;;;19.19;48.51;101444.22;2616203;54;20038;-71
2021/08/21 07:28:15;;;;;;;4.93;3.50;;;;;;;19.30;48.50;101437.47;2652990;36;20528;-71
2021/08/21 07:30:45;;;;;;;5.18;3.20;;;;;;;19.42;48.38;101436.94;2617805;54;20034;-70
2021/08/21 07:33:15;;;;;;;5.60;3.17;;;;;;;19.50;48.21;101431.41;2652784;36;20448;-70
2021/08/21 07:35:48;;;;;;;5.20;3.28;;;;;;;19.65;48.22;101433.44;2615649;54;20576;-70
2021/08/21 07:38:18;;;;;;;5.82;3.03;;;;;;;19.73;48.08;101436.19;2653047;36;20051;-70
2021/08/21 07:40:48;;;;;;;4.43;2.70;;;;;;;19.82;48.49;101433.19;2615781;54;20034;-70
2021/08/21 07:43:17;;;;;;;4.82;3.08;;;;;;;19.93;47.61;101431.94;2652705;36;20230;-70
2021/08/21 07:45:48;;;;;;;4.18;2.50;;;;;;;20.04;47.87;101437.09;2616349;54;20108;-71
2021/08/21 07:48:19;;;;;;;4.82;2.47;;;;;;;20.14;47.82;101434.09;2652434;36;20402;-69
2021/08/21 07:50:51;;;;;;;4.75;2.53;;;;;;;20.25;47.35;101434.56;2616159;54;20030;-70
2021/08/21 07:53:21;;;;;;;;;;;;;;;20.03;47.95;101440.91;2653377;36;20435;-70
2021/08/21 07:55:51;;;;;;;4.30;2.15;;;;;;;20.38;47.88;101449.81;2615242;54;20426;-70
2021/08/21 07:58:21;;;;;;;4.47;2.70;;;;;;;20.50;46.97;101448.34;2650907;36;20042;-70
2021/08/21 08:00:51;;;;;;;4.18;2.58;;;;;;;20.57;46.90;101444.66;2614665;54;20029;-72
2021/08/21 08:03:21;;;;;;;3.45;2.45;;;;;;;20.65;47.12;101444.59;2652588;36;20026;-71
2021/08/21 08:05:54;;;;;;;3.70;2.42;;;;;;;20.76;46.80;101443.28;2616030;54;20034;-72
2021/08/21 08:08:24;;;;;;;3.85;2.30;;;;;;;20.83;46.60;101449.00;2652059;36;20035;-71
2021/08/21 08:10:54;;;;;;;6.75;2.50;;;;;;;20.91;46.50;101448.97;2616562;54;20460;-72
2021/08/21 08:13:24;;;;;;;4.45;2.47;;;;;;;20.98;46.15;101453.59;2651834;36;20035;-72
2021/08/21 08:15:54;;;;;;;3.67;2.40;;;;;;;21.05;46.35;101443.44;2615020;54;20062;-71
2021/08/21 08:18:24;;;;;;;3.83;2.30;;;;;;;21.12;46.38;101446.34;2653060;36;20566;-72
2021/08/21 08:20:56;;;;;;;3.80;2.10;;;;;;;21.22;46.14;101455.28;2615586;54;20545;-72
2021/08/21 08:23:26;;;;;;;;;;;;;;;20.96;46.68;101452.03;2652886;36;20045;-72
2021/08/21 08:25:56;;;;;;;5.05;2.25;;;;;;;21.29;46.23;101453.47;2615267;54;19946;-74
2021/08/21 08:28:28;;;;;;;3.58;2.17;;;;;;;21.37;46.13;101446.97;2651817;36;20073;-72
2021/08/21 08:30:58;;;;;;;3.50;2.03;;;;;;;21.47;46.09;101450.34;2615884;54;20132;-73
2021/08/21 08:33:28;;;;;;;4.47;2.08;;;;;;;21.55;46.48;101446.59;2653289;36;20022;-73
2021/08/21 08:36:00;;;;;;;3.28;2.05;;;;;;;21.65;45.28;101450.03;2615287;54;20039;-72
2021/08/21 08:38:30;;;;;;;3.47;1.95;;;;;;;21.71;45.50;101446.47;2653112;31;20562;-73
2021/08/21 08:41:02;;;;;;;4.15;2.30;;;;;;;21.79;45.44;101440.78;2615777;54;20053;-72
2021/08/21 08:43:32;;;;;;;3.95;2.00;;;;;;;21.86;45.28;101446.47;2652234;36;20038;-73
2021/08/21 08:46:02;;;;;;;4.28;2.20;;;;;;;21.93;45.44;101444.63;2615520;54;20038;-73
2021/08/21 08:48:37;;;;;;;3.42;1.98;;;;;;;22.02;44.73;101446.25;2651856;36;20433;-72
2021/08/21 08:51:11;;;;;;;2.72;1.52;;;;;;;22.06;44.54;101454.03;2615787;54;20022;-72
2021/08/21 08:53:40;;;;;;;3.47;1.92;;;;;;;22.11;44.76;101450.66;2652306;36;20034;-72
2021/08/21 08:56:11;;;;;;;3.30;1.65;;;;;;;22.17;44.36;101449.88;2615641;54;20031;-72
2021/08/21 08:58:40;;;;;;;3.47;2.05;;;;;;;22.21;44.42;101453.19;2652847;36;20034;-72
2021/08/21 09:01:10;;;;;;;3.35;1.73;;;;;;;22.25;44.32;101455.38;2616431;54;20693;-72
2021/08/21 09:03:41;;;;;;;3.65;2.08;;;;;;;22.27;43.34;101456.06;2652276;36;20027;-72
2021/08/21 09:06:16;;;;;;;3.72;1.90;;;;;;;22.33;43.08;101459.97;2615015;39;20469;-72
2021/08/21 09:08:46;;;;;;;3.40;2.08;;;;;;;22.31;43.51;101459.31;2652367;36;20107;-72
2021/08/21 09:11:24;;;;;;;3.78;2.08;;;;;;;22.36;43.05;101466.03;2616680;39;20101;-72
2021/08/21 09:14:14;;;;;;;3.67;2.10;;;;;;;22.34;43.49;101458.91;2652645;36;20222;-72
2021/08/21 09:16:44;;;;;;;3.22;1.90;;;;;;;22.34;43.70;101454.22;2615184;54;20038;-72
2021/08/21 09:19:14;;;;;;;2.83;1.63;;;;;;;22.37;43.71;101445.47;2652345;36;20038;-71
2021/08/21 09:22:00;;;;;;;4.05;2.00;;;;;;;22.42;42.61;101445.72;2616225;39;20590;-71
2021/08/21 09:24:31;;;;;;;5.85;2.15;;;;;;;22.43;43.35;101441.88;2634318;36;20038;-71
2021/08/21 09:27:22;;;;;;;3.78;2.25;;;;;;;22.45;42.31;101436.97;2625591;36;20051;-72
2021/08/21 09:30:10;;;;;;;4.90;2.42;;;;;;;22.50;42.79;101440.03;2580731;54;2004250;-73
2021/08/21 09:32:40;;;;;;;4.18;1.98;;;;;;;22.53;43.03;101433.22;2658220;36;20035;-72
2021/08/21 09:35:12;;;;;;;3.70;2.00;;;;;;;22.61;43.39;101441.44;2616493;54;20573;-71
2021/08/21 09:37:53;;;;;;;3.08;1.63;;;;;;;22.67;42.62;101442.56;2652299;36;20060;-72
2021/08/21 09:40:31;;;;;;;3.58;1.75;;;;;;;22.72;42.40;101438.16;2617122;54;20388;-72
2021/08/21 09:43:03;;;;;;;3.45;1.67;;;;;;;22.78;42.86;101430.91;2654069;36;20027;-72
2021/08/21 09:45:35;;;;;;;3.00;1.70;;;;;;;22.84;43.49;101432.91;2616219;54;20034;-71
2021/08/21 09:48:08;;;;;;;3.90;2.00;;;;;;;22.96;42.38;101427.69;2651920;36;20037;-71
2021/08/21 09:50:40;;;;;;;2.92;1.40;;;;;;;23.05;42.67;101420.91;2615458;54;20042;-72
2021/08/21 09:53:15;;;;;;;3.00;1.92;;;;;;;23.12;42.28;101433.84;2652477;36;20415;-71
2021/08/21 09:55:45;;;;;;;3.00;1.77;;;;;;;23.18;42.27;101429.38;2616758;54;20034;-72
2021/08/21 09:58:19;;;;;;;3.25;2.00;;;;;;;23.26;42.01;101429.22;2653130;36;20034;-73
2021/08/21 10:00:55;;;;;;;4.03;1.75;;;;;;;23.35;42.08;101419.63;2616645;54;20121;-72
2021/08/21 10:03:26;;;;;;;3.50;2.03;;;;;;;23.41;41.60;101426.31;2652653;36;20094;-75
2021/08/21 10:05:56;;;;;;;2.85;1.70;;;;;;;23.47;41.44;101418.03;2615828;47;20242;-75
2021/08/21 10:08:29;;;;;;;2.83;1.77;;;;;;;23.56;40.58;101418.72;2652186;36;20609;-75
2021/08/21 10:11:00;;;;;;;3.50;2.25;;;;;;;23.62;41.24;101415.16;2615847;54;20590;-75
2021/08/21 10:13:35;;;;;;;3.10;1.83;;;;;;;23.68;41.21;101414.31;2652059;36;20045;-75
2021/08/21 10:16:10;;;;;;;3.63;2.00;;;;;;;23.74;40.81;101410.69;2614864;54;20073;-75
2021/08/21 10:18:40;;;;;;;3.05;1.60;;;;;;;23.80;40.74;101403.41;2650886;36;20038;-75
2021/08/21 10:21:10;;;;;;;2.67;1.65;;;;;;;23.87;40.91;101404.31;2614272;54;20038;-75
2021/08/21 10:23:47;;;;;;;2.55;1.80;;;;;;;23.99;39.81;101400.72;2652705;36;20070;-74
2021/08/21 10:26:23;;;;;;;2.85;1.70;;;;;;;24.04;40.85;101409.31;2616478;54;20126;-75
2021/08/21 10:28:54;;;;;;;3.10;1.75;;;;;;;24.12;40.55;101399.09;2653538;31;20517;-75
2021/08/21 10:31:42;;;;;;;3.25;1.98;;;;;;;24.21;40.24;101406.25;2616191;47;20054;-75
2021/08/21 10:34:14;;;;;;;2.53;1.60;;;;;;;24.32;40.72;101402.81;2652841;36;20031;-75
2021/08/21 10:36:53;;;;;;;2.70;1.75;;;;;;;24.42;39.98;101398.56;2616299;54;20558;-74
2021/08/21 10:39:28;;;;;;;1.88;1.25;;;;;;;24.53;39.39;101404.63;2652048;36;20983;-75
2021/08/21 10:41:59;;;;;;;1.88;1.20;;;;;;;24.61;39.97;101407.22;2617003;54;20045;-75
2021/08/21 10:44:43;;;;;;;2.30;1.40;;;;;;;24.73;39.30;101400.81;2664360;36;20031;-76
2021/08/21 10:47:38;;;;;;;2.70;1.27;;;;;;;24.83;39.08;101402.31;2653055;36;20501;-75
2021/08/21 10:50:31;;;;;;;3.05;1.30;;;;;;;24.92;38.47;101401.03;2616049;54;20053;-75
2021/08/21 10:53:03;;;;;;;2.22;1.40;;;;;;;24.99;38.74;101404.69;2652853;36;20120;-75
2021/08/21 10:55:45;;;;;;;2.10;1.20;;;;;;;25.11;38.56;101401.03;2616411;54;20117;-75
2021/08/21 10:58:21;;;;;;;1.77;1.20;;;;;;;25.18;37.97;101395.44;2652143;36;20160;-75
2021/08/21 11:00:56;;;;;;;2.78;1.30;;;;;;;25.28;37.90;101393.09;2616496;54;20079;-75
2021/08/21 11:03:45;;;;;;;1.70;1.00;;;;;;;25.34;37.85;101392.25;2652879;36;20580;-75
2021/08/21 11:06:18;;;;;;;1.80;1.17;;;;;;;25.41;37.82;101387.50;2617343;39;20102;-75
2021/08/21 11:08:59;;;;;;;2.53;1.25;;;;;;;25.51;37.38;101387.03;2653111;36;20031;-76
2021/08/21 11:11:37;;;;;;;2.38;1.25;;;;;;;25.57;36.80;101383.34;2617388;54;20030;-75
2021/08/21 11:14:09;;;;;;;2.08;1.15;;;;;;;25.60;36.87;101394.13;2652624;36;20082;-75
2021/08/21 11:16:53;;;;;;;1.77;1.02;;;;;;;25.66;36.93;101389.59;2616269;54;20045;-75
2021/08/21 11:19:47;;;;;;;2.13;1.13;;;;;;;25.70;36.61;101382.44;2651711;36;20034;-75
2021/08/21 11:22:24;;;;;;;2.95;1.13;;;;;;;25.74;36.35;101373.41;2652994;36;20053;-75
2021/08/21 11:25:11;;;;;;;2.22;1.40;;;;;;;25.78;36.04;101368.19;2615911;47;20034;-75
2021/08/21 11:27:46;;;;;;;2.88;1.35;;;;;;;25.85;36.25;101369.09;2652659;36;20493;-75
2021/08/21 11:30:25;;;;;;;1.60;1.13;;;;;;;25.90;36.48;101372.06;2618822;54;20569;-75
2021/08/21 11:33:00;;;;;;;2.10;1.13;;;;;;;25.93;36.55;101375.31;2655108;36;20117;-75
2021/08/21 11:35:35;;;;;;;2.13;1.25;;;;;;;26.01;35.93;101371.41;2616762;54;20030;-75
2021/08/21 11:38:07;;;;;;;1.80;1.30;;;;;;;26.05;36.25;101364.25;2652462;36;20026;-74
2021/08/21 11:40:40;;;;;;;2.35;1.50;;;;;;;26.10;35.94;101369.19;2616739;54;20043;-75
2021/08/21 11:43:15;;;;;;;2.13;1.30;;;;;;;26.16;35.64;101357.09;2653009;36;20159;-75
2021/08/21 11:45:46;;;;;;;2.80;1.60;;;;;;;26.19;35.35;101359.41;2616120;54;20045;-75
2021/08/21 11:48:17;;;;;;;2.08;1.38;;;;;;;26.21;35.49;101349.72;2653100;36;20413;-75
2021/08/21 11:50:48;;;;;;;2.67;1.50;;;;;;;26.26;34.75;101343.44;2616030;54;20162;-75
2021/08/21 11:53:23;;;;;;;2.42;1.27;;;;;;;26.28;34.78;101341.25;2652449;36;20054;-75
2021/08/21 11:55:54;;;;;;;2.00;1.30;;;;;;;26.29;34.77;101328.94;2615713;54;20080;-75